INFORMACIÓN METAR y TAF
METAR FOR TXKF
ADDS - METARS form results

(0137 UTC 01 August 2021)
Data provider http://aviationweather.gov/metar/data/
 
METAR text: TXKF 010055Z 23010KT 9999 SCT017 BKN300 28/24 Q1021
Conditions at: TXKF (BERMUDA NAS , BM) observed 0055 UTC 01 August 2021
Temperature: 28.0°C (82°F)
Dewpoint: 24.0°C (75°F) [RH = 79%]
Pressure (altimeter): 30.15 inches Hg (1021.0 mb)
Winds: from the SW (230 degrees) at 12 MPH (10 knots; 5.1 m/s)
Visibility: 6 or more miles (10+ km)
Ceiling: 30000 feet AGL
Clouds: scattered clouds at 1700 feet AGL
broken clouds at 30000 feet AGL
Weather: no significant weather observed at this time

Forecast for: TXKF (BERMUDA NAS , BM)
Text: TAF TXKF 312342Z 0100/0124 21012KT 9999 VCSH FEW016 SCT300
Forecast period: 0000 UTC 01 August 2021 to 0000 UTC 02 August 2021
Forecast type: FROM: standard forecast or significant change
Winds: from the SSW (210 degrees) at 14 MPH (12 knots; 6.2 m/s)
Visibility: 6 or more miles (10+ km)
Ceiling: at least 12,000 feet AGL
Clouds: few clouds at 1600 feet AGL
scattered clouds at 30000 feet AGL
Weather: VCSH  (showers in vicinity)

 MAPA DE AEROPUERTO

 INFORMACIÓN DE PISTA